createdAt,value
2018-12-23T00:00:08.269Z,81.90
2018-12-23T00:02:36.609Z,80.77
2018-12-23T00:05:11.502Z,82.37
2018-12-23T00:07:35.666Z,68.20
2018-12-23T00:10:04.395Z,72.50
2018-12-23T00:12:32.773Z,74.97
2018-12-23T00:15:01.188Z,58.50
2018-12-23T00:17:29.563Z,63.40
2018-12-23T00:19:58.013Z,68.97
2018-12-23T00:22:26.366Z,67.83
2018-12-23T00:24:54.784Z,82.80
2018-12-23T00:27:23.157Z,77.80
2018-12-23T00:29:51.521Z,57.33
2018-12-23T00:32:19.927Z,55.43
2018-12-23T00:34:48.300Z,46.87
2018-12-23T00:37:16.693Z,58.63
2018-12-23T00:39:45.068Z,67.30
2018-12-23T00:42:13.435Z,54.80
2018-12-23T00:44:41.928Z,62.50
2018-12-23T00:47:10.292Z,65.77
2018-12-23T00:49:38.704Z,59.13
2018-12-23T00:52:07.151Z,58.57
2018-12-23T00:54:35.549Z,50.83
2018-12-23T00:57:03.877Z,58.83
2018-12-23T00:59:32.264Z,56.47
2018-12-23T01:02:00.632Z,56.00
2018-12-23T01:04:29.000Z,59.00
2018-12-23T01:06:57.387Z,49.97
2018-12-23T01:09:25.862Z,62.37
2018-12-23T01:11:54.222Z,46.77
2018-12-23T01:14:22.625Z,55.87
2018-12-23T01:16:50.960Z,46.50
2018-12-23T01:19:19.339Z,58.17
2018-12-23T01:21:47.714Z,54.90
2018-12-23T01:24:16.091Z,64.03
2018-12-23T01:26:44.467Z,56.83
2018-12-23T01:29:12.827Z,53.10
2018-12-23T01:31:41.297Z,47.80
2018-12-23T01:34:09.654Z,53.90
2018-12-23T01:36:38.024Z,48.47
2018-12-23T01:39:06.918Z,57.03
2018-12-23T01:41:35.824Z,46.57
2018-12-23T01:44:04.284Z,52.67
2018-12-23T01:46:32.659Z,60.23
2018-12-23T01:49:01.016Z,47.23
2018-12-23T01:51:29.383Z,53.27
2018-12-23T01:53:57.738Z,42.30
2018-12-23T01:56:26.111Z,52.73
2018-12-23T01:58:54.467Z,49.63
2018-12-23T02:01:22.844Z,48.57
2018-12-23T02:03:51.209Z,46.90
2018-12-23T02:06:19.696Z,53.53
2018-12-23T02:08:48.068Z,57.70
2018-12-23T02:11:16.420Z,58.30
2018-12-23T02:13:44.783Z,47.20
2018-12-23T02:16:13.128Z,53.47
2018-12-23T02:18:41.504Z,48.93
2018-12-23T02:21:09.864Z,51.70
2018-12-23T02:23:38.220Z,42.17
2018-12-23T02:26:06.601Z,45.60
2018-12-23T02:28:34.968Z,47.20
2018-12-23T02:31:03.339Z,49.33
2018-12-23T02:33:31.716Z,52.73
2018-12-23T02:36:00.081Z,41.57
2018-12-23T02:38:28.441Z,45.90
2018-12-23T02:40:56.801Z,47.17
2018-12-23T02:43:25.168Z,45.60
2018-12-23T02:45:53.528Z,49.23
2018-12-23T02:48:21.875Z,37.63
2018-12-23T02:50:50.252Z,47.23
2018-12-23T02:53:18.608Z,44.53
2018-12-23T02:55:46.981Z,46.53
2018-12-23T02:58:15.331Z,43.67
2018-12-23T03:00:43.696Z,43.90
2018-12-23T03:03:12.044Z,50.00
2018-12-23T03:05:40.404Z,47.50
2018-12-23T03:08:08.773Z,52.90
2018-12-23T03:10:37.126Z,45.93
2018-12-23T03:13:05.568Z,52.83
2018-12-23T03:15:33.929Z,48.47
2018-12-23T03:18:02.278Z,48.50
2018-12-23T03:20:30.657Z,56.30
2018-12-23T03:22:58.997Z,60.83
2018-12-23T03:25:27.382Z,55.53
2018-12-23T03:27:55.739Z,61.00
2018-12-23T03:30:24.125Z,64.50
2018-12-23T03:32:52.614Z,61.53
2018-12-23T03:35:21.138Z,56.77
2018-12-23T03:37:49.520Z,57.53
2018-12-23T03:40:17.868Z,49.00
2018-12-23T03:42:46.220Z,56.07
2018-12-23T03:45:14.568Z,42.87
2018-12-23T03:47:42.921Z,49.60
2018-12-23T03:50:11.237Z,42.97
2018-12-23T03:52:39.627Z,51.40
2018-12-23T03:55:08.176Z,43.77
2018-12-23T03:57:36.519Z,44.73
2018-12-23T04:00:05.320Z,50.30
2018-12-23T04:02:33.655Z,37.60
2018-12-23T04:05:08.400Z,41.27
2018-12-23T04:07:36.795Z,46.07
2018-12-23T04:10:05.396Z,45.50
2018-12-23T04:12:33.756Z,46.57
2018-12-23T04:15:02.127Z,37.23
2018-12-23T04:17:30.472Z,40.80
2018-12-23T04:19:58.819Z,38.33
2018-12-23T04:22:27.191Z,36.50
2018-12-23T04:24:55.539Z,43.97
2018-12-23T04:27:23.920Z,45.37
2018-12-23T04:29:52.279Z,37.67
2018-12-23T04:32:20.639Z,41.20
2018-12-23T04:34:49.011Z,40.00
2018-12-23T04:37:17.443Z,37.50
2018-12-23T04:39:45.776Z,38.13
2018-12-23T04:42:14.151Z,38.13
2018-12-23T04:44:42.491Z,34.83
2018-12-23T04:47:10.848Z,37.33
2018-12-23T04:49:39.197Z,40.63
2018-12-23T04:52:07.566Z,40.50
2018-12-23T04:54:35.943Z,42.13
2018-12-23T04:57:04.407Z,43.13
2018-12-23T04:59:32.769Z,35.80
2018-12-23T05:02:01.137Z,35.83
2018-12-23T05:04:29.480Z,39.40
2018-12-23T05:06:57.841Z,36.40
2018-12-23T05:09:26.195Z,36.77
2018-12-23T05:11:54.561Z,39.73
2018-12-23T05:14:22.896Z,32.43
2018-12-23T05:16:51.256Z,39.63
2018-12-23T05:19:19.599Z,34.00
2018-12-23T05:21:47.958Z,41.80
2018-12-23T05:24:16.734Z,34.13
2018-12-23T05:26:45.125Z,34.40
2018-12-23T05:29:13.583Z,33.37
2018-12-23T05:31:42.039Z,34.67
2018-12-23T05:34:10.397Z,34.20
2018-12-23T05:36:38.734Z,24.60
2018-12-23T05:39:07.725Z,31.63
2018-12-23T05:41:36.084Z,26.10
2018-12-23T05:44:04.453Z,30.33
2018-12-23T05:46:32.775Z,34.17
2018-12-23T05:49:01.180Z,33.53
2018-12-23T05:51:29.499Z,33.60
2018-12-23T05:53:57.871Z,33.10
2018-12-23T05:56:26.216Z,28.07
2018-12-23T05:58:54.571Z,28.43
2018-12-23T06:01:22.966Z,37.43
2018-12-23T06:03:51.317Z,31.43
2018-12-23T06:06:19.664Z,21.40
2018-12-23T06:08:48.023Z,26.80
2018-12-23T06:11:16.392Z,23.33
2018-12-23T06:13:44.752Z,30.27
2018-12-23T06:16:13.145Z,26.47
2018-12-23T06:18:41.471Z,27.73
2018-12-23T06:21:09.828Z,25.23
2018-12-23T06:23:38.172Z,31.10
2018-12-23T06:26:06.564Z,22.60
2018-12-23T06:28:34.906Z,26.23
2018-12-23T06:31:03.277Z,24.80
2018-12-23T06:33:31.629Z,22.90
2018-12-23T06:35:59.995Z,23.07
2018-12-23T06:38:28.317Z,24.67
2018-12-23T06:40:56.678Z,19.33
2018-12-23T06:43:25.006Z,20.03
2018-12-23T06:45:53.393Z,24.80
2018-12-23T06:48:21.744Z,16.77
2018-12-23T06:50:50.115Z,25.13
2018-12-23T06:53:18.463Z,20.97
2018-12-23T06:55:46.859Z,26.97
2018-12-23T06:58:15.219Z,26.87
2018-12-23T07:00:43.560Z,20.53
2018-12-23T07:03:11.889Z,24.40
2018-12-23T07:05:40.244Z,18.40
2018-12-23T07:08:08.574Z,27.67
2018-12-23T07:10:36.929Z,31.47
2018-12-23T07:13:05.271Z,23.10
2018-12-23T07:15:33.665Z,27.30
2018-12-23T07:18:02.011Z,27.67
2018-12-23T07:20:30.357Z,26.77
2018-12-23T07:22:58.695Z,30.13
2018-12-23T07:25:27.170Z,22.57
2018-12-23T07:27:55.521Z,29.30
2018-12-23T07:30:23.882Z,30.07
2018-12-23T07:32:52.253Z,28.57
2018-12-23T07:35:20.595Z,32.77
2018-12-23T07:37:48.988Z,28.77
2018-12-23T07:40:17.340Z,25.10
2018-12-23T07:42:45.715Z,25.50
2018-12-23T07:45:14.056Z,37.00
2018-12-23T07:47:42.419Z,28.97
2018-12-23T07:50:10.887Z,36.60
2018-12-23T07:52:39.502Z,28.97
2018-12-23T07:55:07.825Z,29.17
2018-12-23T07:57:36.176Z,34.40
2018-12-23T08:00:04.766Z,23.23
2018-12-23T08:02:33.133Z,29.70
2018-12-23T08:05:01.481Z,29.23
2018-12-23T08:07:36.160Z,28.73
2018-12-23T08:10:00.219Z,29.90
2018-12-23T08:12:28.598Z,29.07
2018-12-23T08:14:57.018Z,29.63
2018-12-23T08:17:25.867Z,30.87
2018-12-23T08:19:54.330Z,33.90
2018-12-23T08:22:23.141Z,35.53
2018-12-23T08:24:51.763Z,25.67
2018-12-23T08:27:20.156Z,35.30
2018-12-23T08:29:48.936Z,25.77
2018-12-23T08:32:17.321Z,26.70
2018-12-23T08:34:45.663Z,38.10
2018-12-23T08:37:14.027Z,36.80
2018-12-23T08:39:42.369Z,30.70
2018-12-23T08:42:10.723Z,24.07
2018-12-23T08:44:39.175Z,24.47
2018-12-23T08:47:07.575Z,34.23
2018-12-23T08:49:35.927Z,22.77
2018-12-23T08:52:04.768Z,27.10
2018-12-23T08:54:33.242Z,27.57
2018-12-23T08:57:01.598Z,25.43
2018-12-23T08:59:29.967Z,23.27
2018-12-23T09:01:58.327Z,24.70
2018-12-23T09:04:26.647Z,23.17
2018-12-23T09:06:54.995Z,23.43
2018-12-23T09:09:23.447Z,26.10
2018-12-23T09:11:51.803Z,29.13
2018-12-23T09:14:20.147Z,22.10
2018-12-23T09:16:48.522Z,23.20
2018-12-23T09:19:16.871Z,26.00
2018-12-23T09:21:45.188Z,22.33
2018-12-23T09:24:13.527Z,27.93
2018-12-23T09:26:41.859Z,21.70
2018-12-23T09:29:10.258Z,30.80
2018-12-23T09:31:38.605Z,29.67
2018-12-23T09:34:06.976Z,26.37
2018-12-23T09:36:35.359Z,23.37
2018-12-23T09:39:04.699Z,26.67
2018-12-23T09:41:33.095Z,23.00
2018-12-23T09:44:01.453Z,28.97
2018-12-23T09:46:32.807Z,26.00
2018-12-23T09:49:01.203Z,23.33
2018-12-23T09:51:29.775Z,26.77
2018-12-23T09:54:00.018Z,29.50
2018-12-23T09:56:28.641Z,32.30
2018-12-23T09:58:57.010Z,30.43
2018-12-23T10:01:25.678Z,26.57
2018-12-23T10:03:54.519Z,24.87
2018-12-23T10:06:23.214Z,30.97
2018-12-23T10:08:52.053Z,28.37
2018-12-23T10:11:20.647Z,28.57
2018-12-23T10:13:49.000Z,32.93
2018-12-23T10:16:18.384Z,25.50
2018-12-23T10:18:47.440Z,33.87
2018-12-23T10:21:16.038Z,30.10
2018-12-23T10:23:44.504Z,24.93
2018-12-23T10:26:13.225Z,29.83
2018-12-23T10:28:42.198Z,26.40
2018-12-23T10:31:10.706Z,28.67
2018-12-23T10:33:39.043Z,31.10
2018-12-23T10:36:07.797Z,25.90
2018-12-23T10:38:36.770Z,24.30
2018-12-23T10:41:05.460Z,32.47
2018-12-23T10:43:34.171Z,31.40
2018-12-23T10:46:03.263Z,26.37
2018-12-23T10:48:31.610Z,24.07
2018-12-23T10:50:59.959Z,24.13
2018-12-23T10:53:28.568Z,25.67
2018-12-23T10:55:57.129Z,25.53
2018-12-23T10:58:25.868Z,23.83
2018-12-23T11:00:54.289Z,30.47
2018-12-23T11:03:22.720Z,32.93
2018-12-23T11:05:51.059Z,23.03
2018-12-23T11:08:26.732Z,15.63
2018-12-23T11:10:49.875Z,25.70
2018-12-23T11:13:18.307Z,25.03
2018-12-23T11:15:46.747Z,27.77
2018-12-23T11:18:15.097Z,24.23
2018-12-23T11:20:43.440Z,26.43
2018-12-23T11:23:11.848Z,23.70
2018-12-23T11:25:40.183Z,20.43
2018-12-23T11:28:08.640Z,21.33
2018-12-23T11:30:36.993Z,21.27
2018-12-23T11:33:05.359Z,21.40
2018-12-23T11:35:33.676Z,25.97
2018-12-23T11:38:02.027Z,22.47
2018-12-23T11:40:30.432Z,25.03
2018-12-23T11:42:58.791Z,23.27
2018-12-23T11:45:27.150Z,28.10
2018-12-23T11:47:55.511Z,46.03
2018-12-23T11:50:23.851Z,45.97
2018-12-23T11:52:52.210Z,37.57
2018-12-23T11:55:20.539Z,32.13
2018-12-23T11:57:48.884Z,35.60
2018-12-23T12:00:17.247Z,32.70
2018-12-23T12:02:45.600Z,37.77
2018-12-23T12:05:13.946Z,42.73
2018-12-23T12:07:42.331Z,32.03
2018-12-23T12:10:10.691Z,42.47
2018-12-23T12:12:39.083Z,47.53
2018-12-23T12:15:07.513Z,28.10
2018-12-23T12:17:35.836Z,39.87
2018-12-23T12:20:04.431Z,37.77
2018-12-23T12:22:32.816Z,33.10
2018-12-23T12:25:01.159Z,35.07
2018-12-23T12:27:29.512Z,34.73
2018-12-23T12:29:57.826Z,31.10
2018-12-23T12:32:26.215Z,28.83
2018-12-23T12:34:54.544Z,31.67
2018-12-23T12:37:22.895Z,36.90
2018-12-23T12:39:51.255Z,31.10
2018-12-23T12:42:19.641Z,33.53
2018-12-23T12:44:48.040Z,29.33
2018-12-23T12:47:16.371Z,34.47
2018-12-23T12:49:44.780Z,34.47
2018-12-23T12:52:13.131Z,35.30
2018-12-23T12:54:41.588Z,32.17
2018-12-23T12:57:09.923Z,28.50
2018-12-23T12:59:38.395Z,31.87
2018-12-23T13:02:06.814Z,40.90
2018-12-23T13:04:35.219Z,42.60
2018-12-23T13:07:03.689Z,30.90
2018-12-23T13:09:32.379Z,30.37
2018-12-23T13:12:00.927Z,37.83
2018-12-23T13:14:29.268Z,36.27
2018-12-23T13:16:57.608Z,35.50
2018-12-23T13:19:26.063Z,35.70
2018-12-23T13:21:54.434Z,33.70
2018-12-23T13:24:22.783Z,26.67
2018-12-23T13:26:51.147Z,21.43
2018-12-23T13:29:19.483Z,30.63
2018-12-23T13:31:47.831Z,29.93
2018-12-23T13:34:16.211Z,26.57
2018-12-23T13:36:44.695Z,23.90
2018-12-23T13:39:13.039Z,29.23
2018-12-23T13:42:10.875Z,29.57
2018-12-23T13:46:56.692Z,30.30
2018-12-23T13:49:37.772Z,14.40
2018-12-23T13:52:18.040Z,18.83
2018-12-23T13:59:06.273Z,20.97
2018-12-23T14:02:02.748Z,27.47
2018-12-23T14:04:40.437Z,38.67
2018-12-23T14:07:20.710Z,30.27
2018-12-23T14:11:08.487Z,34.43
2018-12-23T14:13:36.820Z,37.33
2018-12-23T14:16:05.265Z,34.97
2018-12-23T14:18:33.640Z,41.33
2018-12-23T14:21:02.000Z,42.83
2018-12-23T14:23:30.343Z,47.27
2018-12-23T14:25:58.747Z,49.87
2018-12-23T14:28:27.330Z,48.40
2018-12-23T14:30:55.783Z,57.43
2018-12-23T14:33:24.180Z,40.27
2018-12-23T14:35:52.527Z,54.63
2018-12-23T14:38:24.803Z,50.33
2018-12-23T14:40:53.409Z,55.17
2018-12-23T14:43:21.896Z,58.13
2018-12-23T14:45:53.961Z,47.97
2018-12-23T14:48:22.421Z,53.20
2018-12-23T14:50:50.893Z,47.90
2018-12-23T14:53:19.564Z,53.07
2018-12-23T14:55:47.912Z,46.77
2018-12-23T14:58:16.313Z,51.73
2018-12-23T15:00:44.664Z,55.47
2018-12-23T15:03:12.990Z,55.37
2018-12-23T15:05:41.349Z,43.03
2018-12-23T15:08:09.679Z,59.47
2018-12-23T15:10:38.055Z,50.20
2018-12-23T15:13:06.441Z,53.03
2018-12-23T15:15:34.791Z,44.43
2018-12-23T15:18:03.249Z,49.80
2018-12-23T15:20:31.763Z,59.57
2018-12-23T15:23:00.116Z,55.03
2018-12-23T15:25:28.576Z,55.17
2018-12-23T15:27:57.018Z,53.07
2018-12-23T15:30:25.400Z,51.07
2018-12-23T15:32:53.884Z,52.30
2018-12-23T15:35:22.237Z,56.57
2018-12-23T15:37:50.591Z,46.30
2018-12-23T15:40:18.943Z,50.17
2018-12-23T15:42:47.276Z,36.60
2018-12-23T15:45:15.608Z,45.50
2018-12-23T15:47:44.181Z,43.10
2018-12-23T15:50:12.638Z,44.23
2018-12-23T15:52:41.035Z,33.00
2018-12-23T15:55:09.360Z,41.97
2018-12-23T15:57:37.759Z,48.70
2018-12-23T16:00:06.231Z,45.37
2018-12-23T16:02:34.598Z,48.73
2018-12-23T16:05:03.096Z,35.30
2018-12-23T16:07:31.486Z,33.97
2018-12-23T16:09:59.895Z,31.90
2018-12-23T16:12:28.322Z,42.67
2018-12-23T16:14:56.664Z,36.90
2018-12-23T16:17:25.018Z,38.23
2018-12-23T16:19:53.326Z,35.10
2018-12-23T16:22:21.755Z,42.23
2018-12-23T16:24:50.108Z,46.20
2018-12-23T16:27:18.493Z,43.90
2018-12-23T16:29:46.864Z,39.47
2018-12-23T16:32:15.361Z,30.53
2018-12-23T16:34:43.724Z,34.43
2018-12-23T16:37:12.111Z,38.30
2018-12-23T16:39:40.445Z,33.83
2018-12-23T16:42:08.771Z,38.73
2018-12-23T16:44:37.184Z,29.87
2018-12-23T16:47:05.511Z,41.03
2018-12-23T16:49:33.861Z,44.07
2018-12-23T16:52:02.295Z,39.40
2018-12-23T16:54:30.729Z,36.07
2018-12-23T16:56:59.201Z,30.07
2018-12-23T16:59:27.569Z,37.43
2018-12-23T17:01:55.960Z,39.17
2018-12-23T17:04:24.363Z,39.83
2018-12-23T17:06:54.163Z,38.97
2018-12-23T17:09:22.659Z,37.47
2018-12-23T17:11:51.011Z,38.57
2018-12-23T17:14:19.367Z,38.93
2018-12-23T17:16:47.739Z,37.37
2018-12-23T17:19:16.121Z,31.20
2018-12-23T17:21:44.507Z,35.53
2018-12-23T17:24:12.831Z,57.73
2018-12-23T17:26:41.226Z,51.00
2018-12-23T17:29:09.573Z,32.93
2018-12-23T17:31:37.960Z,35.20
2018-12-23T17:34:06.311Z,34.33
2018-12-23T17:36:34.663Z,29.37
2018-12-23T17:39:04.436Z,34.40
2018-12-23T17:41:32.789Z,35.13
2018-12-23T17:44:01.128Z,45.73
2018-12-23T17:46:29.511Z,36.00
2018-12-23T17:48:57.885Z,30.97
2018-12-23T17:51:26.531Z,38.40
2018-12-23T17:53:54.962Z,34.20
2018-12-23T17:56:23.324Z,28.63
2018-12-23T17:58:51.736Z,31.20
2018-12-23T18:01:20.140Z,31.63
2018-12-23T18:03:48.533Z,33.27
2018-12-23T18:06:16.902Z,31.13
2018-12-23T18:08:45.279Z,35.50
2018-12-23T18:11:13.715Z,30.67
2018-12-23T18:13:42.059Z,32.33
2018-12-23T18:16:10.514Z,29.03
2018-12-23T18:18:38.867Z,32.57
2018-12-23T18:21:07.259Z,35.10
2018-12-23T18:23:36.496Z,32.47
2018-12-23T18:26:05.070Z,34.73
2018-12-23T18:29:07.481Z,39.73
2018-12-23T18:31:36.730Z,34.20
2018-12-23T18:34:06.037Z,29.83
2018-12-23T18:36:35.281Z,33.17
2018-12-23T18:39:07.015Z,28.67
2018-12-23T18:41:36.261Z,36.90
2018-12-23T18:44:05.490Z,36.50
2018-12-23T18:46:34.727Z,32.50
2018-12-23T18:49:03.972Z,27.37
2018-12-23T18:51:33.225Z,27.27
2018-12-23T18:54:02.448Z,35.20
2018-12-23T18:56:36.704Z,29.77
2018-12-23T18:59:05.957Z,27.17
2018-12-23T19:01:36.729Z,24.00
2018-12-23T19:04:05.933Z,29.37
2018-12-23T19:06:35.153Z,31.07
2018-12-23T19:09:10.843Z,34.33
2018-12-23T19:12:29.412Z,36.77
2018-12-23T19:15:28.267Z,29.53
2018-12-23T19:18:27.663Z,35.63
2018-12-23T19:21:31.913Z,29.30
2018-12-23T19:24:37.354Z,41.00
2018-12-23T19:27:42.767Z,38.17
2018-12-23T19:30:56.190Z,42.77
2018-12-23T19:33:52.719Z,33.67
2018-12-23T19:37:21.097Z,36.73
2018-12-23T19:40:55.581Z,41.20
2018-12-23T19:43:59.413Z,41.70
2018-12-23T19:46:56.471Z,52.43
2018-12-23T19:49:51.698Z,51.13
2018-12-23T19:53:14.347Z,52.00
2018-12-23T19:56:29.525Z,66.27
2018-12-23T19:59:41.594Z,47.57
2018-12-23T20:02:49.040Z,58.83
2018-12-23T20:05:39.360Z,49.40
2018-12-23T20:08:54.687Z,37.27
2018-12-23T20:12:08.390Z,34.07
2018-12-23T20:15:14.411Z,36.60
2018-12-23T20:18:20.617Z,40.43
2018-12-23T20:21:25.827Z,34.77
2018-12-23T20:24:21.120Z,38.67
2018-12-23T20:27:24.416Z,37.47
2018-12-23T20:30:40.720Z,37.30
2018-12-23T20:33:46.025Z,40.03
2018-12-23T20:36:40.682Z,39.27
2018-12-23T20:39:28.872Z,30.43
2018-12-23T20:42:37.987Z,35.43
2018-12-23T20:45:44.132Z,164.70
2018-12-23T20:48:39.596Z,32.03
2018-12-23T20:51:49.747Z,27.10
2018-12-23T20:55:15.281Z,27.33
2018-12-23T20:58:16.781Z,39.10
2018-12-23T21:01:35.224Z,28.40
2018-12-23T21:04:35.765Z,60.63
2018-12-23T21:07:41.187Z,74.40
2018-12-23T21:10:42.080Z,34.57
2018-12-23T21:13:31.580Z,39.23
2018-12-23T21:16:32.372Z,62.53
2018-12-23T21:19:53.716Z,59.27
2018-12-23T21:22:56.516Z,37.70
2018-12-23T21:26:21.991Z,25.27
2018-12-23T21:29:32.718Z,37.90
2018-12-23T21:32:39.144Z,56.73
2018-12-23T21:35:29.526Z,36.70
2018-12-23T21:38:41.729Z,28.90
2018-12-23T21:41:44.461Z,31.47
2018-12-23T21:45:03.556Z,29.30
2018-12-23T21:48:01.046Z,33.63
2018-12-23T21:51:07.629Z,38.93
2018-12-23T21:54:31.693Z,34.60
2018-12-23T21:57:35.660Z,30.50
2018-12-23T22:00:46.805Z,33.27
2018-12-23T22:04:03.365Z,30.13
2018-12-23T22:07:07.172Z,31.20
2018-12-23T22:10:19.916Z,41.77
2018-12-23T22:13:25.650Z,47.30
2018-12-23T22:15:55.156Z,56.63
2018-12-23T22:18:24.971Z,47.53
2018-12-23T22:20:54.207Z,51.90
2018-12-23T22:23:24.008Z,58.93
2018-12-23T22:25:54.456Z,55.40
2018-12-23T22:28:25.304Z,56.60
2018-12-23T22:30:54.541Z,53.50
2018-12-23T22:33:23.780Z,54.37
2018-12-23T22:35:53.028Z,68.80
2018-12-23T22:38:22.291Z,56.63
2018-12-23T22:40:58.644Z,64.33
2018-12-23T22:43:27.868Z,66.13
2018-12-23T22:45:57.088Z,64.83
2018-12-23T22:48:26.317Z,66.67
2018-12-23T22:50:55.572Z,66.30
2018-12-23T22:53:24.872Z,60.33
2018-12-23T22:55:54.168Z,70.87
2018-12-23T22:58:23.378Z,63.57
2018-12-23T23:00:52.680Z,59.53
2018-12-23T23:03:21.891Z,59.53
2018-12-23T23:05:51.141Z,56.27
2018-12-23T23:08:20.432Z,50.53
2018-12-23T23:10:49.692Z,55.00
2018-12-23T23:13:19.040Z,61.67
2018-12-23T23:15:48.293Z,61.00
2018-12-23T23:18:17.608Z,66.93
2018-12-23T23:20:46.848Z,64.90
2018-12-23T23:23:16.048Z,61.90
2018-12-23T23:25:45.258Z,64.30
2018-12-23T23:28:14.518Z,53.60
2018-12-23T23:30:43.748Z,70.97
2018-12-23T23:33:12.944Z,60.07
2018-12-23T23:35:42.176Z,70.57
2018-12-23T23:38:11.408Z,67.77
2018-12-23T23:40:40.672Z,79.13
2018-12-23T23:43:09.896Z,66.63
2018-12-23T23:45:39.115Z,67.30
2018-12-23T23:48:08.305Z,75.00
2018-12-23T23:50:37.524Z,77.93
2018-12-23T23:53:06.729Z,76.80
2018-12-23T23:55:35.951Z,72.57
2018-12-23T23:58:05.184Z,54.53
